Time;durP1;ratioP1;P1;durP2;ratioP2;P2;SDS_P1;SDS_P2;PMS_P1;PMS_P2;Temp;Humidity;BMP_temperature;BMP_pressure;BME280_temperature;BME280_humidity;BME280_pressure;Samples;Min_cycle;Max_cycle;Signal;HPM_P1;HPM_P2
2024/01/05 00:00:01;;;;;;;26.25;12.80;;;;;;;4.68;86.28;94855.84;4990223;28;20113;-85
2024/01/05 00:02:27;;;;;;;27.05;12.95;;;;;;;5.23;86.80;94945.88;5009824;28;20045;-85
2024/01/05 00:04:52;;;;;;;26.42;14.63;;;;;;;4.26;86.02;94790.75;4993130;28;20569;-85
2024/01/05 00:07:18;;;;;;;21.17;11.77;;;;;;;5.17;86.09;94952.13;4992573;28;20058;-85
2024/01/05 00:09:43;;;;;;;25.17;13.13;;;;;;;4.26;86.51;94804.66;5010068;28;20042;-85
2024/01/05 00:12:10;;;;;;;23.23;12.75;;;;;;;4.62;85.84;94852.38;4990740;28;20042;-85
2024/01/05 00:14:38;;;;;;;25.80;12.57;;;;;;;4.77;86.06;94870.16;5007308;28;20082;-85
2024/01/05 00:17:04;;;;;;;22.00;12.45;;;;;;;4.27;86.28;94806.25;5006104;28;20083;-85
2024/01/05 00:19:29;;;;;;;22.55;11.55;;;;;;;2.98;85.95;94614.34;4989164;28;20046;-85
2024/01/05 00:21:55;;;;;;;22.25;12.00;;;;;;;4.98;86.36;94924.53;4994757;28;20034;-86
2024/01/05 00:24:20;;;;;;;25.63;12.95;;;;;;;5.09;86.07;94928.91;5005701;28;20157;-86
2024/01/05 00:26:46;;;;;;;26.55;12.02;;;;;;;3.95;85.50;94765.13;4997117;28;20497;-85
2024/01/05 00:29:12;;;;;;;21.23;11.30;;;;;;;4.97;85.57;94926.38;4979348;28;20089;-86
2024/01/05 00:31:37;;;;;;;20.60;10.05;;;;;;;5.01;86.50;94939.84;4997566;28;20042;-85
2024/01/05 00:34:03;;;;;;;16.92;9.15;;;;;;;4.90;86.82;94917.88;4997231;28;20480;-86
2024/01/05 00:36:28;;;;;;;20.58;10.80;;;;;;;4.66;85.60;94901.53;4979116;28;20034;-85
2024/01/05 00:38:54;;;;;;;22.08;10.93;;;;;;;3.17;85.57;94669.91;4996994;28;20077;-86
2024/01/05 00:41:19;;;;;;;21.75;10.85;;;;;;;5.01;86.26;94963.47;4980317;28;20523;-86
2024/01/05 00:43:44;;;;;;;23.23;11.43;;;;;;;3.69;86.34;94754.28;4998249;28;20088;-86
2024/01/05 00:46:10;;;;;;;21.52;10.85;;;;;;;4.60;86.60;94891.22;4979529;28;20034;-86
2024/01/05 00:48:36;;;;;;;15.68;9.23;;;;;;;4.97;86.44;94975.50;4979012;28;20034;-86
2024/01/05 00:51:01;;;;;;;22.42;10.20;;;;;;;4.78;85.07;94984.72;4979500;28;20042;-86
2024/01/05 00:53:27;;;;;;;21.83;9.05;;;;;;;4.86;85.72;94973.78;4978463;28;20139;-86
2024/01/05 00:55:52;;;;;;;17.65;9.57;;;;;;;3.43;85.83;94741.84;4979751;28;20023;-86
2024/01/05 00:58:18;;;;;;;17.95;8.82;;;;;;;4.11;86.67;94864.03;4979715;28;20433;-86
2024/01/05 01:00:43;;;;;;;24.67;9.38;;;;;;;3.88;86.91;94842.19;4996839;28;20042;-86
2024/01/05 01:03:09;;;;;;;15.50;8.60;;;;;;;4.31;87.19;94953.56;4996858;28;20038;-86
2024/01/05 01:05:34;;;;;;;16.58;8.40;;;;;;;3.74;86.51;94854.00;4979098;28;20038;-86
2024/01/05 01:08:00;;;;;;;20.35;8.73;;;;;;;2.91;86.88;94712.44;4978459;28;20414;-86
2024/01/05 01:10:26;;;;;;;16.10;8.13;;;;;;;3.49;86.70;94809.06;4978631;28;20045;-85
2024/01/05 01:12:51;;;;;;;15.32;8.13;;;;;;;3.37;87.20;94769.00;4978909;28;20037;-86
2024/01/05 01:15:17;;;;;;;14.82;7.90;;;;;;;3.85;86.82;94854.97;4977707;28;20527;-86
2024/01/05 01:17:42;;;;;;;15.93;7.78;;;;;;;4.50;86.33;94954.88;4977868;28;20054;-86
2024/01/05 01:20:08;;;;;;;15.75;8.23;;;;;;;3.90;85.91;94873.41;4996773;28;20034;-85
2024/01/05 01:22:34;;;;;;;18.40;9.38;;;;;;;4.02;85.61;94870.72;4977767;28;20065;-85
2024/01/05 01:24:59;;;;;;;17.83;7.45;;;;;;;4.70;85.69;94978.03;4995483;28;20596;-85
2024/01/05 01:27:25;;;;;;;25.15;8.43;;;;;;;4.30;85.44;94912.59;4995312;28;20026;-85
2024/01/05 01:29:50;;;;;;;14.77;7.82;;;;;;;3.82;87.02;94861.47;4981301;28;20069;-84
2024/01/05 01:32:16;;;;;;;18.48;8.35;;;;;;;3.27;86.15;94780.13;4989133;28;20069;-84
2024/01/05 01:34:41;;;;;;;13.57;7.38;;;;;;;4.44;86.45;94955.84;5007216;28;20411;-85
2024/01/05 01:37:07;;;;;;;16.10;7.93;;;;;;;3.25;86.57;94769.09;4989788;28;20034;-84
2024/01/05 01:39:33;;;;;;;17.98;9.18;;;;;;;4.45;85.96;94967.97;4986688;28;20034;-85
2024/01/05 01:42:00;;;;;;;15.35;8.40;;;;;;;4.42;86.22;94965.03;4978389;28;20030;-85
2024/01/05 01:44:25;;;;;;;15.85;8.15;;;;;;;3.75;86.47;94850.34;4977471;28;20468;-85
2024/01/05 01:46:55;;;;;;;16.35;8.30;;;;;;;4.74;86.59;94984.41;4995313;28;20038;-85
2024/01/05 01:49:22;;;;;;;18.90;8.45;;;;;;;2.54;86.18;94639.56;4976757;28;20034;-86
2024/01/05 01:51:48;;;;;;;19.75;8.35;;;;;;;4.65;85.93;94970.09;4995885;28;20113;-85
2024/01/05 01:54:14;;;;;;;17.33;8.13;;;;;;;3.89;85.46;94877.84;4978140;28;20034;-85
2024/01/05 01:56:41;;;;;;;15.90;7.65;;;;;;;3.98;85.23;94883.50;4978225;28;20042;-85
2024/01/05 01:59:07;;;;;;;12.48;7.60;;;;;;;4.60;85.57;94970.81;4977630;28;20103;-85
2024/01/05 02:01:34;;;;;;;14.02;7.38;;;;;;;4.74;85.09;94999.34;4991308;28;20034;-85
2024/01/05 02:04:00;;;;;;;12.20;6.93;;;;;;;4.73;84.96;94997.78;4990771;28;20034;-85
2024/01/05 02:06:26;;;;;;;12.50;6.70;;;;;;;4.26;84.62;94959.56;5007201;28;20042;-85
2024/01/05 02:08:51;;;;;;;14.68;6.45;;;;;;;4.22;84.74;94960.25;4989935;28;20058;-85
2024/01/05 02:11:17;;;;;;;17.05;7.85;;;;;;;3.75;84.52;94894.94;5008582;28;20077;-85
2024/01/05 02:13:43;;;;;;;11.70;6.68;;;;;;;4.15;84.19;94964.84;4990333;28;20038;-85
2024/01/05 02:16:09;;;;;;;15.07;6.82;;;;;;;4.17;85.31;94974.09;5006688;28;20034;-85
2024/01/05 02:18:35;;;;;;;15.38;6.85;;;;;;;4.03;84.96;94970.19;5007999;28;20053;-85
2024/01/05 02:21:03;;;;;;;12.43;7.20;;;;;;;4.32;85.17;95020.78;5008382;28;20042;-85
2024/01/05 02:23:31;;;;;;;10.95;6.45;;;;;;;3.92;85.13;94944.00;5010390;28;20045;-85
2024/01/05 02:26:00;;;;;;;14.20;6.80;;;;;;;4.15;85.43;94975.34;4992742;28;20065;-85
2024/01/05 02:28:26;;;;;;;15.90;6.65;;;;;;;4.26;84.94;95003.38;4993136;28;20045;-85
2024/01/05 02:30:56;;;;;;;27.42;8.88;;;;;;;4.09;85.39;94976.31;5010154;28;20062;-85
2024/01/05 02:33:22;;;;;;;23.05;9.10;;;;;;;4.26;85.16;95003.38;4992232;28;20042;-85
2024/01/05 02:35:47;;;;;;;24.77;9.93;;;;;;;3.46;85.35;94880.31;4992926;28;20116;-85
2024/01/05 02:38:13;;;;;;;17.50;9.23;;;;;;;3.54;86.19;94890.41;5010223;28;20034;-85
2024/01/05 02:40:38;;;;;;;29.75;10.75;;;;;;;4.26;86.49;94995.50;5009878;28;20574;-85
2024/01/05 02:43:04;;;;;;;27.20;12.15;;;;;;;3.99;86.18;94949.91;5008963;28;20034;-86
2024/01/05 02:45:32;;;;;;;19.67;9.45;;;;;;;4.46;86.18;95018.66;5008355;28;20045;-85
2024/01/05 02:47:58;;;;;;;21.85;9.48;;;;;;;2.24;85.42;94666.00;4997398;28;20040;-85
2024/01/05 02:50:23;;;;;;;17.92;9.27;;;;;;;4.01;85.53;94945.22;4999597;28;20042;-85
2024/01/05 02:52:49;;;;;;;17.77;8.27;;;;;;;3.91;85.05;94945.84;4996474;28;20100;-85
2024/01/05 02:55:15;;;;;;;15.40;7.95;;;;;;;3.27;84.66;94857.97;4977273;28;20092;-85
2024/01/05 02:57:43;;;;;;;19.55;9.63;;;;;;;4.18;84.67;95025.56;4977390;28;20038;-86
2024/01/05 03:00:09;;;;;;;14.18;8.63;;;;;;;3.35;84.97;94894.28;4992899;28;20081;-85
2024/01/05 03:02:35;;;;;;;19.75;9.98;;;;;;;3.53;84.73;94936.00;4993608;28;20034;-86
2024/01/05 03:05:01;;;;;;;16.52;10.25;;;;;;;4.03;85.31;95011.38;4976670;28;20105;-85
2024/01/05 03:07:26;;;;;;;19.20;9.85;;;;;;;1.98;85.62;94700.56;4964312;28;20054;-85
2024/01/05 03:09:52;;;;;;;15.80;9.27;;;;;;;3.41;85.49;94922.16;4984600;28;20030;-85
2024/01/05 03:12:18;;;;;;;15.30;8.65;;;;;;;3.40;85.20;94936.28;4993908;28;20034;-85
2024/01/05 03:14:44;;;;;;;17.77;9.85;;;;;;;3.14;85.09;94908.00;4976426;28;20038;-85
2024/01/05 03:17:10;;;;;;;17.30;8.82;;;;;;;3.35;84.27;94939.63;4978406;28;20045;-86
2024/01/05 03:19:35;;;;;;;18.83;9.23;;;;;;;3.62;84.55;94991.50;4980175;28;20035;-85
2024/01/05 03:22:01;;;;;;;17.73;8.93;;;;;;;2.84;85.03;94856.63;4998008;28;20046;-86
2024/01/05 03:24:26;;;;;;;18.60;9.80;;;;;;;1.53;84.87;94651.53;4980376;28;20065;-86
2024/01/05 03:26:52;;;;;;;15.82;8.95;;;;;;;2.84;84.83;94874.97;4980299;28;20042;-85
2024/01/05 03:29:17;;;;;;;17.52;9.35;;;;;;;2.72;85.21;94895.97;4980154;28;20034;-86
2024/01/05 03:31:44;;;;;;;14.75;8.38;;;;;;;3.91;85.35;95065.72;4980706;28;20064;-85
2024/01/05 03:34:09;;;;;;;15.95;7.93;;;;;;;3.26;85.46;94972.47;4982224;28;20416;-86
2024/01/05 03:36:35;;;;;;;16.45;9.63;;;;;;;3.65;85.22;95025.94;4999587;28;20109;-85
2024/01/05 03:39:00;;;;;;;16.05;8.52;;;;;;;2.72;84.99;94884.69;4981344;28;20088;-86
2024/01/05 03:41:26;;;;;;;21.08;8.73;;;;;;;2.88;84.61;94933.72;4980177;28;20069;-85
2024/01/05 03:43:52;;;;;;;15.73;9.40;;;;;;;3.46;84.86;95048.09;4998329;28;20141;-85
2024/01/05 03:46:17;;;;;;;17.73;8.90;;;;;;;3.83;85.18;95091.31;4997922;28;20483;-85
2024/01/05 03:48:43;;;;;;;21.55;10.00;;;;;;;3.89;85.33;95095.59;4979472;28;20429;-86
2024/01/05 03:51:08;;;;;;;17.25;9.98;;;;;;;2.53;85.77;94928.53;4980170;28;20039;-85
2024/01/05 03:53:34;;;;;;;16.02;9.48;;;;;;;3.23;85.33;95038.44;4980360;28;20097;-85
2024/01/05 03:56:00;;;;;;;19.15;9.70;;;;;;;3.61;85.90;95073.81;4979642;28;20045;-85
2024/01/05 03:58:28;;;;;;;21.25;10.68;;;;;;;3.38;85.47;95043.19;4996782;28;20030;-86
2024/01/05 04:00:53;;;;;;;17.73;9.38;;;;;;;3.20;85.25;95012.72;4987613;28;20042;-85
2024/01/05 04:03:20;;;;;;;17.10;9.20;;;;;;;3.23;85.23;95012.25;4990430;28;20045;-85
2024/01/05 04:05:46;;;;;;;18.55;9.23;;;;;;;2.56;85.26;94890.63;4990082;28;20084;-85
2024/01/05 04:08:12;;;;;;;15.65;8.70;;;;;;;3.76;85.01;95076.72;5010301;28;20161;-85
2024/01/05 04:10:38;;;;;;;20.42;9.43;;;;;;;3.48;84.62;95046.03;4995756;28;20056;-84
2024/01/05 04:13:04;;;;;;;20.92;10.20;;;;;;;3.05;84.83;94997.47;5009876;28;20042;-85
2024/01/05 04:15:30;;;;;;;24.25;10.93;;;;;;;3.71;85.04;95106.28;4990717;28;20493;-85
2024/01/05 04:17:56;;;;;;;21.42;10.38;;;;;;;2.55;83.90;94931.72;4990402;28;20037;-85
2024/01/05 04:20:22;;;;;;;22.98;10.57;;;;;;;3.73;84.52;95121.81;5002759;28;20489;-85
2024/01/05 04:22:48;;;;;;;19.65;10.95;;;;;;;2.82;84.38;94992.28;4979671;28;20049;-85
2024/01/05 04:25:13;;;;;;;19.42;10.57;;;;;;;2.30;84.56;94907.59;4978962;28;20030;-85
2024/01/05 04:27:39;;;;;;;21.88;10.25;;;;;;;1.44;84.84;94754.03;4978347;28;20379;-85
2024/01/05 04:30:05;;;;;;;23.17;10.32;;;;;;;2.74;85.06;94953.34;4978527;28;20054;-85
2024/01/05 04:32:31;;;;;;;20.13;10.18;;;;;;;3.74;84.91;95118.13;4979112;28;20046;-86
2024/01/05 04:35:05;;;;;;;16.40;9.20;;;;;;;2.99;84.47;95039.50;4996736;28;20050;-86
2024/01/05 04:37:30;;;;;;;21.42;9.25;;;;;;;3.01;84.28;95045.31;4997001;28;20416;-85
2024/01/05 04:39:56;;;;;;;17.83;8.35;;;;;;;3.19;84.78;95076.63;4979277;28;20031;-86
2024/01/05 04:42:22;;;;;;;21.95;9.68;;;;;;;2.65;84.95;95012.31;4979058;28;20038;-85
2024/01/05 04:44:49;;;;;;;28.65;10.10;;;;;;;2.69;84.97;95002.97;4996721;28;20042;-86
2024/01/05 04:47:15;;;;;;;21.00;10.40;;;;;;;3.55;85.16;95135.06;4997285;28;20053;-87
2024/01/05 04:49:41;;;;;;;29.58;11.50;;;;;;;2.90;85.30;95028.56;4980028;28;20034;-85
2024/01/05 04:52:06;;;;;;;27.63;11.43;;;;;;;3.16;85.15;95056.13;4998568;28;20120;-86
2024/01/05 04:54:32;;;;;;;24.48;9.85;;;;;;;3.41;84.41;95129.25;4997118;28;20523;-85
2024/01/05 04:56:58;;;;;;;19.77;9.43;;;;;;;2.82;84.75;95041.25;4979794;28;20428;-85
2024/01/05 04:59:24;;;;;;;18.38;9.77;;;;;;;3.00;84.27;95091.66;4979893;28;20101;-86
2024/01/05 05:01:49;;;;;;;18.75;9.13;;;;;;;3.26;85.07;95131.56;4979603;28;20030;-87
2024/01/05 05:04:17;;;;;;;22.02;8.43;;;;;;;2.43;84.58;95016.53;4980886;28;20026;-85
2024/01/05 05:06:43;;;;;;;16.90;8.18;;;;;;;3.29;85.16;95154.66;4980274;28;20038;-85
2024/01/05 05:09:10;;;;;;;17.30;9.23;;;;;;;2.96;85.74;95092.38;4981548;28;20131;-87
2024/01/05 05:11:39;;;;;;;13.77;8.80;;;;;;;3.01;85.61;95127.34;5010779;28;20022;-85
2024/01/05 05:14:05;;;;;;;23.20;9.73;;;;;;;3.23;85.63;95182.59;4992734;28;20030;-86
2024/01/05 05:16:35;;;;;;;21.23;10.13;;;;;;;2.57;85.67;95051.94;5020845;28;20026;-86
2024/01/05 05:19:01;;;;;;;18.55;10.23;;;;;;;3.24;85.30;95176.31;5012628;28;20053;-86
2024/01/05 05:21:28;;;;;;;20.20;10.23;;;;;;;2.85;85.73;95133.25;4994124;28;20034;-88
2024/01/05 05:23:53;;;;;;;21.17;9.93;;;;;;;3.05;86.13;95159.13;4989338;28;20034;-86
2024/01/05 05:26:19;;;;;;;21.35;10.57;;;;;;;3.12;86.56;95180.78;4993522;28;20033;-88
2024/01/05 05:28:45;;;;;;;20.52;10.35;;;;;;;2.83;86.99;95116.13;4995376;28;20100;-87
2024/01/05 05:31:11;;;;;;;19.25;10.20;;;;;;;2.35;87.19;95035.16;5001519;28;20108;-88
2024/01/05 05:33:37;;;;;;;20.98;10.35;;;;;;;3.01;87.09;95116.84;4981054;28;20030;-85
2024/01/05 05:36:38;;;;;;;24.90;11.13;;;;;;;-0.30;85.88;94613.47;4989003;28;20126;-86
2024/01/05 05:39:34;;;;;;;20.45;9.95;;;;;;;0.82;86.15;94778.91;4974961;28;20436;-86
2024/01/05 05:42:05;;;;;;;24.70;10.07;;;;;;;1.14;86.34;94833.25;4977117;28;20141;-86
2024/01/05 05:44:31;;;;;;;24.80;11.40;;;;;;;3.10;86.00;95144.31;4985810;28;20400;-87
2024/01/05 05:46:57;;;;;;;17.98;9.90;;;;;;;2.53;85.80;95069.88;4989653;28;20034;-87
2024/01/05 05:49:28;;;;;;;22.40;11.85;;;;;;;1.45;85.90;94904.56;4987809;28;20529;-87
2024/01/05 05:51:53;;;;;;;21.85;11.23;;;;;;;1.48;86.01;94896.28;4980662;28;20041;-87
2024/01/05 05:54:19;;;;;;;19.27;9.73;;;;;;;2.90;86.15;95119.47;5002976;28;20038;-87
2024/01/05 05:56:44;;;;;;;23.83;11.05;;;;;;;3.43;85.94;95209.25;4999776;28;20022;-87
2024/01/05 05:59:16;;;;;;;20.48;10.63;;;;;;;2.82;86.02;95130.28;4984727;28;20077;-88
2024/01/05 06:01:44;;;;;;;25.80;11.13;;;;;;;3.33;85.98;95213.50;4999942;28;20029;-87
2024/01/05 06:04:10;;;;;;;23.45;10.77;;;;;;;1.23;85.74;94859.84;4980743;28;20045;-87
2024/01/05 06:06:35;;;;;;;19.15;10.48;;;;;;;1.73;86.21;94937.94;5003080;28;20045;-87
2024/01/05 06:09:17;;;;;;;22.77;10.23;;;;;;;-0.15;86.78;94626.91;4982976;28;20137;-86
2024/01/05 06:11:44;;;;;;;19.17;10.05;;;;;;;2.09;86.94;94965.72;4987330;28;20503;-87
2024/01/05 06:14:09;;;;;;;19.98;9.68;;;;;;;2.60;85.96;95069.78;5010128;28;20069;-87
2024/01/05 06:16:35;;;;;;;20.60;10.50;;;;;;;0.48;86.31;94731.56;4989670;28;20115;-87
2024/01/05 06:19:01;;;;;;;18.35;10.25;;;;;;;-0.13;85.91;94617.84;5000977;28;20038;-87
2024/01/05 06:21:29;;;;;;;21.42;10.40;;;;;;;1.12;86.23;94829.28;4982834;28;20531;-87
2024/01/05 06:23:55;;;;;;;17.90;11.15;;;;;;;1.06;86.39;94794.41;4991894;28;20048;-87
2024/01/05 06:26:21;;;;;;;23.95;11.30;;;;;;;0.73;86.23;94731.44;4987231;28;20030;-87
2024/01/05 06:28:49;;;;;;;22.00;10.35;;;;;;;3.23;86.71;95119.69;4987465;28;20147;-87
2024/01/05 06:31:15;;;;;;;26.60;10.55;;;;;;;3.06;86.19;95103.06;4989848;28;20123;-88
2024/01/05 06:33:42;;;;;;;19.23;10.35;;;;;;;2.97;85.54;95118.34;4987574;28;20409;-87
2024/01/05 06:36:07;;;;;;;19.75;10.68;;;;;;;3.67;85.90;95212.66;5009427;28;20040;-87
2024/01/05 06:38:33;;;;;;;19.48;10.63;;;;;;;3.03;86.22;95121.88;4994157;28;20934;-87
2024/01/05 06:40:59;;;;;;;18.50;10.00;;;;;;;1.88;85.76;94951.38;5002182;28;20899;-87
2024/01/05 06:43:24;;;;;;;20.33;10.18;;;;;;;2.30;85.72;94997.38;5004852;28;20064;-87
2024/01/05 06:45:50;;;;;;;22.27;11.30;;;;;;;1.43;86.28;94862.19;5004131;28;20042;-87
2024/01/05 06:48:15;;;;;;;18.85;10.20;;;;;;;2.36;85.90;95010.59;5002816;28;20455;-87
2024/01/05 06:50:43;;;;;;;17.58;8.93;;;;;;;1.03;87.33;94807.09;5003094;28;20034;-88
2024/01/05 06:53:09;;;;;;;18.58;9.63;;;;;;;0.35;86.64;94690.81;4998761;28;20081;-88
2024/01/05 06:55:35;;;;;;;24.63;12.48;;;;;;;1.98;87.40;94914.22;5001994;28;20034;-87
2024/01/05 06:58:04;;;;;;;20.73;10.23;;;;;;;1.41;87.20;94859.00;5004600;28;20014;-87
2024/01/05 07:00:32;;;;;;;28.08;13.85;;;;;;;0.59;87.34;94698.72;5006031;28;20038;-87
2024/01/05 07:02:58;;;;;;;34.58;13.63;;;;;;;0.09;87.41;94609.53;4992360;28;20034;-87
2024/01/05 07:05:23;;;;;;;26.42;13.15;;;;;;;1.84;87.31;94832.56;4981395;28;20108;-87
2024/01/05 07:07:52;;;;;;;28.25;14.48;;;;;;;-0.01;87.11;94555.34;4996943;28;20057;-88
2024/01/05 07:10:18;;;;;;;28.05;13.65;;;;;;;0.90;86.87;94674.16;4997865;28;20069;-89
2024/01/05 07:12:44;;;;;;;27.83;13.70;;;;;;;2.08;87.31;94886.47;4990434;28;20081;-88
2024/01/05 07:15:10;;;;;;;28.65;13.27;;;;;;;2.15;86.86;94862.78;4992980;28;20088;-88
2024/01/05 07:17:35;;;;;;;21.05;12.15;;;;;;;0.81;86.86;94647.59;5016547;28;20057;-87
2024/01/05 07:20:01;;;;;;;28.00;12.48;;;;;;;1.18;87.25;94697.78;5023588;28;20022;-87
2024/01/05 07:22:27;;;;;;;21.35;11.82;;;;;;;4.59;87.15;95233.69;4996506;28;20057;-87
2024/01/05 07:24:52;;;;;;;24.23;12.40;;;;;;;2.63;87.21;94920.09;5007616;28;20034;-87
2024/01/05 07:27:21;;;;;;;20.70;11.95;;;;;;;2.19;87.30;94819.47;5002010;28;20030;-88
2024/01/05 07:29:50;;;;;;;26.33;11.43;;;;;;;2.97;87.21;94950.69;4993575;28;20048;-88
2024/01/05 07:32:15;;;;;;;20.52;11.77;;;;;;;1.05;87.17;94638.75;4994595;28;20041;-88
2024/01/05 07:34:41;;;;;;;24.63;10.90;;;;;;;2.60;87.63;94895.16;4995264;28;20100;-88
2024/01/05 07:37:07;;;;;;;27.95;10.77;;;;;;;3.31;87.20;94971.75;4995801;28;20037;-89
2024/01/05 07:39:32;;;;;;;29.95;11.38;;;;;;;1.63;86.66;94716.28;4998648;28;20033;-89
2024/01/05 07:42:03;;;;;;;25.65;13.02;;;;;;;3.75;87.07;95039.22;4997562;28;20140;-88
2024/01/05 07:44:28;;;;;;;34.58;16.85;;;;;;;4.71;86.78;95197.69;4995725;28;20435;-88
2024/01/05 07:46:54;;;;;;;48.80;29.08;;;;;;;2.21;86.64;94820.81;5000086;28;20099;-88
2024/01/05 07:49:20;;;;;;;61.38;31.42;;;;;;;4.87;87.15;95206.63;4994541;28;20369;-89
2024/01/05 07:51:48;;;;;;;77.70;37.35;;;;;;;2.31;86.48;94836.72;4992692;28;20164;-87
2024/01/05 07:54:19;;;;;;;77.53;36.88;;;;;;;4.64;86.39;95210.97;5004892;28;20034;-87
2024/01/05 08:00:09;;;;;;;79.82;37.65;;;;;;;1.62;85.68;94672.06;5005209;28;20118;-88
2024/01/05 08:02:37;;;;;;;80.40;39.22;;;;;;;2.90;85.50;94868.03;4990669;28;20054;-86
2024/01/05 08:05:03;;;;;;;75.88;37.08;;;;;;;5.18;86.15;95229.75;4989881;28;20036;-88
2024/01/05 08:07:36;;;;;;;76.72;36.78;;;;;;;2.90;85.38;94884.50;5014788;28;20024;-89
2024/01/05 08:10:02;;;;;;;73.28;36.53;;;;;;;3.58;85.29;94990.38;5000014;28;20056;-87
2024/01/05 08:12:30;;;;;;;88.45;39.20;;;;;;;1.10;84.95;94585.81;5004954;28;20041;-88
2024/01/05 08:14:56;;;;;;;81.85;40.80;;;;;;;2.63;85.18;94833.69;5000904;28;20110;-88
2024/01/05 08:17:21;;;;;;;73.45;39.97;;;;;;;5.10;85.04;95221.47;5007504;28;20038;-87
2024/01/05 08:19:47;;;;;;;76.40;38.22;;;;;;;3.03;84.84;94894.75;5008707;28;20049;-88
2024/01/05 08:22:13;;;;;;;71.65;36.25;;;;;;;1.35;84.85;94632.59;5018804;28;20052;-87
2024/01/05 08:24:41;;;;;;;85.32;37.95;;;;;;;2.24;84.81;94765.41;5015185;28;20557;-88
2024/01/05 08:27:06;;;;;;;73.85;38.05;;;;;;;1.23;85.05;94584.78;5015549;28;20063;-88
2024/01/05 08:29:34;;;;;;;76.45;37.78;;;;;;;3.19;84.91;94892.41;5034427;28;20122;-87
2024/01/05 08:32:02;;;;;;;83.57;40.75;;;;;;;2.32;84.45;94740.72;5015539;28;20042;-87
2024/01/05 08:34:28;;;;;;;71.70;36.90;;;;;;;1.86;84.30;94669.19;5015284;28;20033;-87
2024/01/05 08:36:54;;;;;;;69.20;38.85;;;;;;;3.06;84.38;94839.22;5012140;28;20053;-87
2024/01/05 08:39:20;;;;;;;74.53;37.70;;;;;;;3.96;84.16;94977.44;5037117;28;20029;-87
2024/01/05 08:41:46;;;;;;;60.05;31.75;;;;;;;3.95;83.84;94975.84;5014866;28;20064;-88
2024/01/05 08:44:11;;;;;;;58.47;30.52;;;;;;;3.91;83.45;94948.47;5011022;28;20118;-88
2024/01/05 08:46:37;;;;;;;56.55;29.00;;;;;;;2.61;82.97;94731.84;5015523;28;20061;-87
2024/01/05 08:49:03;;;;;;;46.55;24.40;;;;;;;4.63;82.75;95037.84;5016287;28;20503;-88
2024/01/05 08:51:31;;;;;;;45.55;20.00;;;;;;;3.56;83.05;94858.72;5016670;28;20037;-89
2024/01/05 08:53:59;;;;;;;38.20;17.58;;;;;;;2.51;81.96;94687.16;5033710;28;20056;-87
2024/01/05 08:56:27;;;;;;;31.90;16.70;;;;;;;2.83;81.32;94728.53;5016642;28;20033;-88
2024/01/05 08:58:52;;;;;;;31.10;14.82;;;;;;;4.22;80.70;94937.41;5019935;28;20041;-87
2024/01/05 09:01:32;;;;;;;35.55;13.98;;;;;;;2.28;80.22;94606.94;5041305;28;20125;-86
2024/01/05 09:03:58;;;;;;;29.95;11.15;;;;;;;4.48;79.42;94950.94;5039376;28;20112;-88
2024/01/05 09:06:24;;;;;;;39.38;20.80;;;;;;;4.05;79.97;94852.66;5020715;28;20073;-87
2024/01/05 09:08:50;;;;;;;65.80;34.00;;;;;;;3.87;81.38;94831.94;5019834;28;20035;-87
2024/01/05 09:11:16;;;;;;;79.38;39.15;;;;;;;4.95;82.12;95004.69;5019321;28;20073;-87
2024/01/05 09:13:42;;;;;;;72.38;37.60;;;;;;;3.63;82.24;94809.53;5026894;28;20043;-87
2024/01/05 09:16:07;;;;;;;67.82;33.53;;;;;;;5.08;81.39;95011.41;5020024;28;20056;-86
2024/01/05 09:18:36;;;;;;;76.30;37.03;;;;;;;5.40;81.77;95054.44;5023038;28;20076;-87
2024/01/05 09:21:06;;;;;;;80.65;35.70;;;;;;;3.99;81.38;94843.13;5011663;28;20048;-85
2024/01/05 09:23:32;;;;;;;66.97;33.13;;;;;;;6.08;81.20;95155.03;5039094;28;20028;-85
2024/01/05 09:25:58;;;;;;;68.38;32.42;;;;;;;5.42;80.82;95044.44;5036342;28;20025;-86
2024/01/05 09:28:23;;;;;;;67.88;31.60;;;;;;;6.61;80.54;95228.06;4997967;28;20076;-86
2024/01/05 09:30:49;;;;;;;50.72;27.23;;;;;;;5.36;80.37;95023.59;5036048;28;20036;-86
2024/01/05 09:33:16;;;;;;;64.80;29.58;;;;;;;6.35;79.87;95176.91;5019260;28;20124;-86
2024/01/05 09:35:41;;;;;;;64.55;30.13;;;;;;;6.36;80.38;95177.72;5015112;28;20044;-85
2024/01/05 09:38:07;;;;;;;62.65;28.70;;;;;;;6.08;80.52;95123.41;5037503;28;20091;-87
2024/01/05 09:40:34;;;;;;;49.92;25.05;;;;;;;6.37;80.69;95166.13;5011726;28;20041;-84
2024/01/05 09:43:02;;;;;;;66.45;24.73;;;;;;;6.48;80.82;95171.28;5036113;28;20037;-87
2024/01/05 09:45:30;;;;;;;49.13;23.85;;;;;;;5.85;80.84;95069.16;5032122;28;20036;-87
2024/01/05 09:48:00;;;;;;;60.38;24.02;;;;;;;6.95;80.94;95232.09;5023294;28;20037;-87
2024/01/05 09:50:26;;;;;;;54.70;23.33;;;;;;;6.20;80.43;95103.00;5021051;28;20121;-86
2024/01/05 09:52:52;;;;;;;44.15;21.45;;;;;;;6.81;79.95;95186.09;5004638;28;20482;-86
2024/01/05 09:55:17;;;;;;;49.00;21.05;;;;;;;6.94;79.51;95209.41;4990963;28;20292;-86
2024/01/05 09:57:44;;;;;;;37.33;18.52;;;;;;;7.12;78.87;95218.81;5005440;28;20091;-86
2024/01/05 10:00:15;;;;;;;21.48;11.25;;;;;;;6.69;78.09;95150.41;5009867;28;20049;-85
2024/01/05 10:02:59;;;;;;;29.07;12.80;;;;;;;6.50;76.76;95098.03;5010422;28;20093;-86
2024/01/05 10:05:25;;;;;;;36.08;13.35;;;;;;;7.12;75.77;95181.88;5013005;28;20126;-85
2024/01/05 10:07:50;;;;;;;27.65;10.10;;;;;;;6.79;74.10;95124.13;5009840;28;20182;-86
2024/01/05 10:10:16;;;;;;;23.85;10.25;;;;;;;7.13;73.91;95158.94;5017625;28;20124;-86
2024/01/05 10:12:41;;;;;;;26.23;11.77;;;;;;;7.35;74.21;95176.25;5025323;28;20053;-86
2024/01/05 10:15:08;;;;;;;33.33;14.13;;;;;;;7.06;75.24;95145.19;5022480;28;20026;-85
2024/01/05 10:17:34;;;;;;;34.33;14.02;;;;;;;7.23;75.05;95154.56;5022693;28;20034;-85
2024/01/05 10:20:16;;;;;;;36.70;14.15;;;;;;;7.09;75.19;95120.94;5016430;28;20044;-86
2024/01/05 10:22:48;;;;;;;33.55;13.25;;;;;;;7.02;76.41;95028.09;5013257;28;20025;-85
2024/01/05 10:25:21;;;;;;;59.10;16.55;;;;;;;8.43;75.94;95146.72;5018334;28;20044;-85
2024/01/05 10:27:49;;;;;;;31.45;16.92;;;;;;;8.70;75.08;95075.94;5015100;28;20065;-85
2024/01/05 10:30:30;;;;;;;39.63;16.48;;;;;;;10.01;73.71;95149.06;5008263;28;20190;-86
2024/01/05 10:33:07;;;;;;;25.48;13.73;;;;;;;11.18;71.30;95202.34;5011293;28;20081;-87
2024/01/05 10:35:35;;;;;;;31.17;14.02;;;;;;;11.90;69.38;95192.72;5006198;28;20038;-85
2024/01/05 10:38:14;;;;;;;53.97;16.27;;;;;;;10.84;67.38;94920.28;4989719;28;20141;-86
2024/01/05 10:40:40;;;;;;;51.10;15.40;;;;;;;12.08;65.27;95063.63;5016403;28;20412;-85
2024/01/05 10:43:13;;;;;;;48.50;14.48;;;;;;;13.37;66.95;95177.59;5016431;28;20037;-86
2024/01/05 10:45:44;;;;;;;37.72;14.05;;;;;;;13.80;64.68;95188.88;5003099;28;20044;-86
2024/01/05 10:48:13;;;;;;;22.63;12.30;;;;;;;13.86;64.04;95182.38;5015035;28;20056;-86
2024/01/05 10:50:43;;;;;;;21.02;13.52;;;;;;;14.12;64.16;95176.56;5019603;28;20167;-86
2024/01/05 10:53:09;;;;;;;28.75;13.05;;;;;;;14.10;65.31;95130.75;5028983;28;20097;-87
2024/01/05 10:55:36;;;;;;;24.17;10.75;;;;;;;13.97;61.20;95104.88;5034775;28;20029;-87
2024/01/05 10:58:02;;;;;;;38.28;12.68;;;;;;;13.98;59.67;95069.13;5023649;28;20048;-87
2024/01/05 11:00:28;;;;;;;46.08;12.10;;;;;;;14.36;58.14;95126.50;5026670;28;20041;-87
2024/01/05 11:03:11;;;;;;;48.47;10.27;;;;;;;13.84;55.05;95018.47;5029101;28;20138;-86
2024/01/05 11:05:44;;;;;;;25.75;7.40;;;;;;;13.41;56.98;94968.16;5032801;28;20045;-86
2024/01/05 11:08:22;;;;;;;30.38;9.40;;;;;;;13.32;55.06;95057.81;5055170;28;20025;-87
2024/01/05 11:10:57;;;;;;;34.03;7.82;;;;;;;14.14;52.78;95153.88;5027912;28;20081;-88
2024/01/05 11:13:46;;;;;;;22.17;7.22;;;;;;;13.85;54.64;95153.34;5035074;28;20029;-87
2024/01/05 11:16:49;;;;;;;15.80;7.25;;;;;;;13.52;54.95;95145.38;5016854;28;20025;-88
2024/01/05 11:22:46;;;;;;;18.38;5.90;;;;;;;11.59;53.14;94876.13;5049928;28;20072;-87
2024/01/05 11:25:15;;;;;;;14.35;5.47;;;;;;;12.58;53.32;95016.97;5127089;22;20053;-82
2024/01/05 11:27:48;;;;;;;12.63;6.78;;;;;;;11.54;54.47;94894.78;4993123;28;20113;-81
2024/01/05 11:30:14;;;;;;;21.58;6.88;;;;;;;10.67;54.90;94782.84;4981326;28;20061;-83
2024/01/05 11:32:46;;;;;;;29.40;8.85;;;;;;;12.97;54.88;95133.69;4979728;28;20042;-81